createdAt,value
2022-11-22T00:00:44.778Z,-0.90
2022-11-22T00:03:12.524Z,-0.90
2022-11-22T00:05:39.741Z,-0.90
2022-11-22T00:08:07.052Z,-0.90
2022-11-22T00:10:34.558Z,-0.90
2022-11-22T00:13:02.185Z,-0.90
2022-11-22T00:15:30.142Z,-0.90
2022-11-22T00:17:57.330Z,-0.80
2022-11-22T00:20:24.661Z,-0.80
2022-11-22T00:22:51.849Z,-0.80
2022-11-22T00:25:18.901Z,-0.80
2022-11-22T00:27:46.868Z,-0.80
2022-11-22T00:30:14.215Z,-0.80
2022-11-22T00:32:41.705Z,-0.80
2022-11-22T00:35:10.016Z,-0.80
2022-11-22T00:37:37.507Z,-0.80
2022-11-22T00:40:06.022Z,-0.80
2022-11-22T00:42:33.142Z,-0.80
2022-11-22T00:45:00.499Z,-0.80
2022-11-22T00:47:27.586Z,-0.70
2022-11-22T00:49:54.685Z,-0.70
2022-11-22T00:52:21.889Z,-0.70
2022-11-22T00:54:54.497Z,-0.70
2022-11-22T00:57:22.383Z,-0.80
2022-11-22T00:59:49.619Z,-0.70
2022-11-22T01:02:16.690Z,-0.70
2022-11-22T01:04:43.963Z,-0.70
2022-11-22T01:07:12.012Z,-0.70
2022-11-22T01:09:39.342Z,-0.70
2022-11-22T01:12:06.682Z,-0.70
2022-11-22T01:14:34.237Z,-0.80
2022-11-22T01:17:01.338Z,-0.80
2022-11-22T01:19:28.895Z,-0.70
2022-11-22T01:21:56.247Z,-0.80
2022-11-22T01:24:23.617Z,-0.70
2022-11-22T01:26:50.917Z,-0.70
2022-11-22T01:29:18.141Z,-0.70
2022-11-22T01:31:45.313Z,-0.70
2022-11-22T01:34:12.581Z,-0.70
2022-11-22T01:36:39.649Z,-0.70
2022-11-22T01:39:06.947Z,-0.70
2022-11-22T01:41:34.308Z,-0.70
2022-11-22T01:44:28.343Z,-0.70
2022-11-22T01:47:01.647Z,-0.70
2022-11-22T01:49:42.509Z,-0.70
2022-11-22T01:52:16.392Z,-0.70
2022-11-22T01:54:48.166Z,-0.70
2022-11-22T01:57:21.762Z,-0.60
2022-11-22T01:59:55.656Z,-0.60
2022-11-22T02:02:23.051Z,-0.60
2022-11-22T02:04:51.223Z,-0.60
2022-11-22T02:07:44.568Z,-0.60
2022-11-22T02:10:12.255Z,-0.60
2022-11-22T02:12:40.188Z,-0.60
2022-11-22T02:15:08.366Z,-0.60
2022-11-22T02:17:35.486Z,-0.60
2022-11-22T02:20:02.695Z,-0.60
2022-11-22T02:22:54.647Z,-0.60
2022-11-22T02:25:44.404Z,-0.60
2022-11-22T02:28:13.766Z,-0.50
2022-11-22T02:30:41.989Z,-0.50
2022-11-22T02:33:09.878Z,-0.50
2022-11-22T02:35:37.198Z,-0.50
2022-11-22T02:38:21.826Z,-0.50
2022-11-22T02:41:07.058Z,-0.50
2022-11-22T02:43:37.736Z,-0.40
2022-11-22T02:46:07.104Z,-0.40
2022-11-22T02:48:34.458Z,-0.40
2022-11-22T02:51:02.187Z,-0.40
2022-11-22T02:53:32.015Z,-0.40
2022-11-22T02:55:59.139Z,-0.40
2022-11-22T02:58:26.243Z,-0.30
2022-11-22T03:00:53.410Z,-0.30
2022-11-22T03:03:20.634Z,-0.30
2022-11-22T03:05:47.817Z,-0.20
2022-11-22T03:08:15.063Z,-0.20
2022-11-22T03:10:42.263Z,-0.20
2022-11-22T03:13:09.434Z,-0.20
2022-11-22T03:15:36.626Z,-0.20
2022-11-22T03:18:05.123Z,-0.20
2022-11-22T03:20:33.882Z,-0.20
2022-11-22T03:23:01.506Z,-0.20
2022-11-22T03:25:28.895Z,-0.10
2022-11-22T03:27:56.062Z,-0.10
2022-11-22T03:30:23.291Z,-0.10
2022-11-22T03:32:50.619Z,-0.10
2022-11-22T03:35:17.823Z,-0.10
2022-11-22T03:37:45.755Z,0.00
2022-11-22T03:40:13.561Z,0.00
2022-11-22T03:42:40.812Z,0.00
2022-11-22T03:45:08.407Z,0.00
2022-11-22T03:47:35.615Z,0.10
2022-11-22T03:50:02.630Z,0.10
2022-11-22T03:52:29.823Z,0.10
2022-11-22T03:54:57.199Z,0.10
2022-11-22T03:57:24.227Z,0.10
2022-11-22T03:59:51.445Z,0.10
2022-11-22T04:02:18.693Z,0.10
2022-11-22T04:04:45.930Z,0.20
2022-11-22T04:07:13.772Z,0.20
2022-11-22T04:09:40.954Z,0.20
2022-11-22T04:12:08.443Z,0.20
2022-11-22T04:14:54.079Z,0.20
2022-11-22T04:17:41.921Z,0.30
2022-11-22T04:20:30.843Z,0.30
2022-11-22T04:23:00.110Z,0.30
2022-11-22T04:25:29.193Z,0.40
2022-11-22T04:27:57.365Z,0.40
2022-11-22T04:30:44.034Z,0.40
2022-11-22T04:33:11.902Z,0.40
2022-11-22T04:35:39.630Z,0.40
2022-11-22T04:38:06.978Z,0.50
2022-11-22T04:40:34.827Z,0.50
2022-11-22T04:43:20.675Z,0.50
2022-11-22T04:45:48.419Z,0.50
2022-11-22T04:48:16.383Z,0.60
2022-11-22T04:51:02.986Z,0.50
2022-11-22T04:53:30.539Z,0.50
2022-11-22T04:55:58.279Z,0.50
2022-11-22T04:58:25.432Z,0.60
2022-11-22T05:00:52.862Z,0.60
2022-11-22T05:03:20.402Z,0.60
2022-11-22T05:05:48.001Z,0.60
2022-11-22T05:08:15.650Z,0.60
2022-11-22T05:10:58.679Z,0.60
2022-11-22T05:13:34.652Z,0.60
2022-11-22T05:16:03.608Z,0.60
2022-11-22T05:18:31.135Z,0.60
2022-11-22T05:21:00.291Z,0.70
2022-11-22T05:23:45.786Z,0.70
2022-11-22T05:26:12.935Z,0.70
2022-11-22T05:28:40.481Z,0.70
2022-11-22T05:31:23.309Z,0.70
2022-11-22T05:33:52.406Z,0.70
2022-11-22T05:36:20.576Z,0.70
2022-11-22T05:38:48.125Z,0.70
2022-11-22T05:41:16.751Z,0.70
2022-11-22T05:43:44.419Z,0.70
2022-11-22T05:46:12.699Z,0.70
2022-11-22T05:48:42.107Z,0.80
2022-11-22T05:51:12.292Z,0.80
2022-11-22T05:53:40.364Z,0.80
2022-11-22T05:56:13.104Z,0.80
2022-11-22T05:58:41.782Z,0.80
2022-11-22T06:01:17.996Z,0.80
2022-11-22T06:03:45.987Z,0.80
2022-11-22T06:06:13.379Z,0.80
2022-11-22T06:08:45.184Z,0.80
2022-11-22T06:11:23.824Z,0.70
2022-11-22T06:13:56.829Z,0.80
2022-11-22T06:16:24.725Z,0.80
2022-11-22T06:18:53.377Z,0.80
2022-11-22T06:21:26.363Z,0.80
2022-11-22T06:23:55.065Z,0.80
2022-11-22T06:26:23.610Z,0.80
2022-11-22T06:28:51.551Z,0.80
2022-11-22T06:31:24.465Z,0.80
2022-11-22T06:33:53.324Z,0.80
2022-11-22T06:36:39.499Z,0.80
2022-11-22T06:39:07.049Z,0.80
2022-11-22T06:41:37.137Z,0.80
2022-11-22T06:44:08.802Z,0.80
2022-11-22T06:46:37.393Z,0.80
2022-11-22T06:49:04.555Z,0.90
2022-11-22T06:51:32.562Z,0.90
2022-11-22T06:53:59.996Z,0.90
2022-11-22T06:56:30.807Z,0.90
2022-11-22T06:58:58.087Z,0.90
2022-11-22T07:01:28.262Z,0.90
2022-11-22T07:03:58.969Z,0.90
2022-11-22T07:06:38.775Z,0.90
2022-11-22T07:09:09.688Z,0.90
2022-11-22T07:11:37.608Z,0.90
2022-11-22T07:14:08.749Z,0.90
2022-11-22T07:16:38.245Z,0.90
2022-11-22T07:19:07.472Z,0.90
2022-11-22T07:21:37.640Z,0.90
2022-11-22T07:24:06.942Z,0.90
2022-11-22T07:26:34.106Z,0.90
2022-11-22T07:29:01.289Z,0.90
2022-11-22T07:31:28.545Z,0.90
2022-11-22T07:33:58.000Z,0.90
2022-11-22T07:36:25.569Z,0.90
2022-11-22T07:38:52.921Z,0.90
2022-11-22T07:41:20.200Z,0.90
2022-11-22T07:43:47.551Z,1.00
2022-11-22T07:46:31.485Z,0.90
2022-11-22T07:49:00.211Z,0.90
2022-11-22T07:51:27.401Z,0.90
2022-11-22T07:53:56.526Z,0.90
2022-11-22T07:56:24.095Z,1.00
2022-11-22T07:58:51.641Z,1.00
2022-11-22T08:01:19.571Z,1.00
2022-11-22T08:03:47.159Z,1.00
2022-11-22T08:06:15.364Z,1.00
2022-11-22T08:08:42.511Z,1.00
2022-11-22T08:11:11.314Z,1.00
2022-11-22T08:13:38.557Z,1.00
2022-11-22T08:16:09.100Z,1.00
2022-11-22T08:18:37.676Z,1.00
2022-11-22T08:21:06.140Z,1.00
2022-11-22T08:23:33.873Z,1.10
2022-11-22T08:26:01.289Z,1.10
2022-11-22T08:28:29.101Z,1.10
2022-11-22T08:31:01.074Z,1.00
2022-11-22T08:33:28.573Z,1.00
2022-11-22T08:35:55.866Z,1.10
2022-11-22T08:38:23.183Z,1.10
2022-11-22T08:40:51.147Z,1.10
2022-11-22T08:43:18.700Z,1.10
2022-11-22T08:45:46.123Z,1.10
2022-11-22T08:48:16.430Z,1.10
2022-11-22T08:50:57.477Z,1.10
2022-11-22T08:53:25.840Z,1.10
2022-11-22T08:55:53.392Z,1.10
2022-11-22T08:58:20.944Z,1.10
2022-11-22T09:00:48.332Z,1.10
2022-11-22T09:03:15.462Z,1.20
2022-11-22T09:08:32.799Z,1.20
2022-11-22T09:11:05.397Z,1.20
2022-11-22T09:13:32.945Z,1.30
2022-11-22T09:16:04.760Z,1.30
2022-11-22T09:18:32.377Z,1.30
2022-11-22T09:21:05.089Z,1.30
2022-11-22T09:23:34.299Z,1.40
2022-11-22T09:26:06.299Z,1.40
2022-11-22T09:28:34.682Z,1.40
2022-11-22T09:31:04.445Z,1.40
2022-11-22T09:33:32.153Z,1.40
2022-11-22T09:36:01.686Z,1.40
2022-11-22T09:38:29.977Z,1.40
2022-11-22T09:40:58.048Z,1.50
2022-11-22T09:43:43.979Z,1.50
2022-11-22T09:46:29.045Z,1.50
2022-11-22T09:49:26.361Z,1.50
2022-11-22T09:52:30.779Z,1.50
2022-11-22T09:55:02.304Z,1.60
2022-11-22T09:57:37.923Z,1.60
2022-11-22T10:00:10.548Z,1.60
2022-11-22T10:02:59.394Z,1.60
2022-11-22T10:05:50.866Z,1.60
2022-11-22T10:08:59.464Z,1.60
2022-11-22T10:11:48.722Z,1.60
2022-11-22T10:14:47.641Z,1.60
2022-11-22T10:17:20.583Z,1.60
2022-11-22T10:20:13.769Z,1.60
2022-11-22T10:22:40.976Z,1.60
2022-11-22T10:25:42.696Z,1.60
2022-11-22T10:28:19.758Z,1.70
2022-11-22T10:31:08.207Z,1.70
2022-11-22T10:33:44.719Z,1.70
2022-11-22T10:36:42.578Z,1.70
2022-11-22T10:39:18.621Z,1.60
2022-11-22T10:41:54.582Z,1.70
2022-11-22T10:44:37.183Z,1.70
2022-11-22T10:47:29.131Z,1.60
2022-11-22T10:50:01.687Z,1.70
2022-11-22T10:52:37.451Z,1.60
2022-11-22T10:55:19.994Z,1.70
2022-11-22T10:58:00.316Z,1.70
2022-11-22T11:00:30.869Z,1.70
2022-11-22T11:03:09.222Z,1.70
2022-11-22T11:11:47.566Z,1.70
2022-11-22T11:14:41.806Z,1.70
2022-11-22T11:17:18.423Z,1.70
2022-11-22T11:19:48.776Z,1.70
2022-11-22T11:22:50.359Z,1.70
2022-11-22T11:25:31.246Z,1.80
2022-11-22T11:28:04.175Z,1.80
2022-11-22T11:30:43.254Z,1.70
2022-11-22T11:33:30.116Z,1.80
2022-11-22T11:36:02.078Z,1.80
2022-11-22T11:38:31.973Z,1.80
2022-11-22T11:41:16.721Z,1.90
2022-11-22T11:43:44.748Z,1.90
2022-11-22T11:46:23.392Z,1.90
2022-11-22T11:49:09.430Z,1.90
2022-11-22T11:51:40.511Z,1.90
2022-11-22T11:54:24.077Z,1.90
2022-11-22T11:56:58.944Z,2.00
2022-11-22T11:59:40.877Z,2.00
2022-11-22T12:02:16.595Z,2.00
2022-11-22T12:05:15.650Z,2.00
2022-11-22T12:07:45.371Z,2.00
2022-11-22T12:10:31.654Z,2.00
2022-11-22T12:13:08.001Z,2.10
2022-11-22T12:15:51.060Z,2.10
2022-11-22T12:18:21.119Z,2.10
2022-11-22T12:21:19.454Z,2.10
2022-11-22T12:24:19.420Z,2.10
2022-11-22T12:26:44.841Z,2.10
2022-11-22T12:29:16.420Z,2.10
2022-11-22T12:31:48.261Z,2.20
2022-11-22T12:34:28.899Z,2.20
2022-11-22T12:37:05.738Z,2.20
2022-11-22T12:39:36.873Z,2.20
2022-11-22T12:42:12.215Z,2.20
2022-11-22T12:44:49.537Z,2.20
2022-11-22T12:47:24.680Z,2.10
2022-11-22T12:50:03.673Z,2.10
2022-11-22T12:52:40.084Z,2.20
2022-11-22T12:55:24.333Z,2.20
2022-11-22T12:58:23.989Z,2.20
2022-11-22T13:01:12.603Z,2.20
2022-11-22T13:03:50.200Z,2.20
2022-11-22T13:06:24.042Z,2.30
2022-11-22T13:09:03.201Z,2.30
2022-11-22T13:11:45.361Z,2.30
2022-11-22T13:14:23.117Z,2.30
2022-11-22T13:16:53.262Z,2.30
2022-11-22T13:19:25.190Z,2.30
2022-11-22T13:22:21.919Z,2.40
2022-11-22T13:25:00.758Z,2.40
2022-11-22T13:27:40.136Z,2.40
2022-11-22T13:30:22.301Z,2.50
2022-11-22T13:32:55.364Z,2.50
2022-11-22T13:35:32.384Z,2.50
2022-11-22T13:38:17.085Z,2.50
2022-11-22T13:40:45.459Z,2.50
2022-11-22T13:43:21.652Z,2.50
2022-11-22T13:45:58.533Z,2.50
2022-11-22T13:48:44.121Z,2.50
2022-11-22T13:51:14.932Z,2.60
2022-11-22T13:53:44.248Z,2.50
2022-11-22T13:56:17.260Z,2.60
2022-11-22T13:59:02.217Z,2.60
2022-11-22T14:01:35.414Z,2.60
2022-11-22T14:04:17.626Z,2.60
2022-11-22T14:06:50.703Z,2.70
2022-11-22T14:09:39.868Z,2.70
2022-11-22T14:12:31.710Z,2.70
2022-11-22T14:15:01.672Z,2.60
2022-11-22T14:17:56.029Z,2.60
2022-11-22T14:20:40.304Z,2.60
2022-11-22T14:23:28.983Z,2.60
2022-11-22T14:26:14.686Z,2.50
2022-11-22T14:29:18.960Z,2.50
2022-11-22T14:31:58.556Z,2.50
2022-11-22T14:34:30.704Z,2.50
2022-11-22T14:37:13.146Z,2.50
2022-11-22T14:39:53.441Z,2.60
2022-11-22T14:42:47.501Z,2.60
2022-11-22T14:45:41.211Z,2.60
2022-11-22T14:48:23.619Z,2.50
2022-11-22T14:51:04.370Z,2.50
2022-11-22T14:54:11.195Z,2.50
2022-11-22T14:56:38.993Z,2.50
2022-11-22T14:59:30.468Z,2.50
2022-11-22T15:02:00.725Z,2.40
2022-11-22T15:09:20.093Z,2.40
2022-11-22T15:09:23.872Z,2.40
2022-11-22T15:10:41.426Z,2.40
2022-11-22T15:13:27.396Z,2.40
2022-11-22T15:57:28.830Z,2.40
2022-11-22T15:59:56.552Z,2.50
2022-11-22T16:02:27.870Z,2.50
2022-11-22T16:06:05.325Z,2.50
2022-11-22T16:07:51.831Z,2.50
2022-11-22T16:10:25.267Z,2.50
2022-11-22T16:12:53.370Z,2.50
2022-11-22T16:15:36.345Z,2.50
2022-11-22T16:18:24.959Z,2.50
2022-11-22T16:21:05.730Z,2.50
2022-11-22T16:23:35.295Z,2.50
2022-11-22T16:26:20.297Z,2.50
2022-11-22T16:28:49.469Z,2.50
2022-11-22T16:31:18.324Z,2.50
2022-11-22T16:33:46.249Z,2.50
2022-11-22T16:36:15.797Z,2.50
2022-11-22T16:38:46.085Z,2.40
2022-11-22T16:41:22.111Z,2.40
2022-11-22T16:43:52.512Z,2.40
2022-11-22T16:46:20.139Z,2.40
2022-11-22T16:48:47.943Z,2.50
2022-11-22T16:51:28.642Z,2.40
2022-11-22T16:53:59.253Z,2.40
2022-11-22T16:56:28.570Z,2.40
2022-11-22T16:58:57.607Z,2.40
2022-11-22T17:01:27.524Z,2.40
2022-11-22T17:03:57.253Z,2.40
2022-11-22T17:06:26.876Z,2.40
2022-11-22T17:08:56.280Z,2.40
2022-11-22T17:11:25.998Z,2.40
2022-11-22T17:14:01.710Z,2.40
2022-11-22T17:16:29.408Z,2.40
2022-11-22T17:18:57.422Z,2.40
2022-11-22T17:21:37.280Z,2.40
2022-11-22T17:24:07.134Z,2.40
2022-11-22T17:26:34.980Z,2.30
2022-11-22T17:29:02.431Z,2.30
2022-11-22T17:31:29.836Z,2.30
2022-11-22T17:33:58.857Z,2.30
2022-11-22T17:36:32.372Z,2.30
2022-11-22T17:39:01.357Z,2.30
2022-11-22T17:41:30.671Z,2.30
2022-11-22T17:43:58.231Z,2.30
2022-11-22T17:46:25.910Z,2.30
2022-11-22T17:48:54.348Z,2.40
2022-11-22T17:51:22.212Z,2.40
2022-11-22T17:53:49.633Z,2.40
2022-11-22T17:56:17.007Z,2.40
2022-11-22T17:58:44.113Z,2.40
2022-11-22T18:01:16.439Z,2.40
2022-11-22T18:03:44.167Z,2.40
2022-11-22T18:06:13.371Z,2.40
2022-11-22T18:08:46.463Z,2.50
2022-11-22T18:11:14.685Z,2.40
2022-11-22T18:13:42.214Z,2.40
2022-11-22T18:16:15.916Z,2.40
2022-11-22T18:18:59.233Z,2.40
2022-11-22T18:21:31.387Z,2.40
2022-11-22T18:23:59.944Z,2.40
2022-11-22T18:26:43.137Z,2.50
2022-11-22T18:32:00.562Z,2.50
2022-11-22T18:34:29.034Z,2.50
2022-11-22T18:37:05.033Z,2.50
2022-11-22T18:39:36.117Z,2.50
2022-11-22T18:42:05.702Z,2.50
2022-11-22T18:44:33.141Z,2.50
2022-11-22T18:47:00.621Z,2.50
2022-11-22T18:49:27.919Z,2.50
2022-11-22T18:51:55.972Z,2.50
2022-11-22T18:54:24.077Z,2.50
2022-11-22T18:56:51.862Z,2.50
2022-11-22T18:59:19.317Z,2.50
2022-11-22T19:01:46.729Z,2.40
2022-11-22T19:04:16.045Z,2.40
2022-11-22T19:06:44.004Z,2.40
2022-11-22T19:09:11.944Z,2.40
2022-11-22T19:11:39.435Z,2.40
2022-11-22T19:14:07.199Z,2.40
2022-11-22T19:16:35.017Z,2.40
2022-11-22T19:19:02.431Z,2.40
2022-11-22T19:21:30.741Z,2.40
2022-11-22T19:23:58.645Z,2.40
2022-11-22T19:26:31.210Z,2.40
2022-11-22T19:29:00.160Z,2.40
2022-11-22T19:31:29.664Z,2.40
2022-11-22T19:34:00.486Z,2.40
2022-11-22T19:36:33.363Z,2.40
2022-11-22T19:39:02.800Z,2.40
2022-11-22T19:41:31.139Z,2.40
2022-11-22T19:44:01.988Z,2.50
2022-11-22T19:46:30.263Z,2.50
2022-11-22T19:48:59.254Z,2.50
2022-11-22T19:51:28.618Z,2.50
2022-11-22T19:53:59.700Z,2.60
2022-11-22T19:56:30.772Z,2.60
2022-11-22T19:58:59.852Z,2.60
2022-11-22T20:01:29.598Z,2.60
2022-11-22T20:03:59.255Z,2.60
2022-11-22T20:06:27.476Z,2.60
2022-11-22T20:09:03.387Z,2.60
2022-11-22T20:11:30.489Z,2.60
2022-11-22T20:14:14.187Z,2.60
2022-11-22T20:16:41.967Z,2.70
2022-11-22T20:19:10.202Z,2.60
2022-11-22T20:21:40.612Z,2.60
2022-11-22T20:24:08.322Z,2.60
2022-11-22T20:26:35.891Z,2.60
2022-11-22T20:29:07.502Z,2.60
2022-11-22T20:31:37.412Z,2.60
2022-11-22T20:34:04.861Z,2.60
2022-11-22T20:36:34.163Z,2.60
2022-11-22T20:39:05.563Z,2.60
2022-11-22T20:41:37.048Z,2.70
2022-11-22T20:44:04.623Z,2.60
2022-11-22T20:46:31.826Z,2.60
2022-11-22T20:48:59.163Z,2.60
2022-11-22T20:51:28.259Z,2.60
2022-11-22T20:53:56.971Z,2.70
2022-11-22T20:56:25.176Z,2.70
2022-11-22T20:58:52.766Z,2.60
2022-11-22T21:01:26.187Z,2.60
2022-11-22T21:03:54.748Z,2.70
2022-11-22T21:06:24.305Z,2.70
2022-11-22T21:08:51.724Z,2.70
2022-11-22T21:11:27.227Z,2.70
2022-11-22T21:13:56.011Z,2.70
2022-11-22T21:16:26.254Z,2.70
2022-11-22T21:18:56.142Z,2.70
2022-11-22T21:21:24.999Z,2.70
2022-11-22T21:23:56.904Z,2.70
2022-11-22T21:26:25.476Z,2.70
2022-11-22T21:28:53.557Z,2.70
2022-11-22T21:31:21.744Z,2.70
2022-11-22T21:33:49.614Z,2.70
2022-11-22T21:36:17.790Z,2.70
2022-11-22T21:38:45.223Z,2.70
2022-11-22T21:44:05.843Z,2.70
2022-11-22T21:46:32.958Z,2.70
2022-11-22T21:49:00.332Z,2.70
2022-11-22T21:51:27.601Z,2.80
2022-11-22T21:54:02.052Z,2.70
2022-11-22T21:56:30.066Z,2.70
2022-11-22T21:58:57.699Z,2.70
2022-11-22T22:01:25.640Z,2.70
2022-11-22T22:03:53.516Z,2.70
2022-11-22T22:06:21.252Z,2.70
2022-11-22T22:08:48.791Z,2.80
2022-11-22T22:11:16.390Z,2.70
2022-11-22T22:13:43.779Z,2.70
2022-11-22T22:16:18.884Z,2.80
2022-11-22T22:18:46.767Z,2.80
2022-11-22T22:21:14.882Z,2.80
2022-11-22T22:23:43.380Z,2.80
2022-11-22T22:26:16.182Z,2.80
2022-11-22T22:28:45.445Z,2.80
2022-11-22T22:31:17.299Z,2.80
2022-11-22T22:33:45.917Z,2.90
2022-11-22T22:36:13.688Z,2.90
2022-11-22T22:38:41.358Z,2.90
2022-11-22T22:41:11.447Z,2.90
2022-11-22T22:43:42.201Z,2.90
2022-11-22T22:46:15.256Z,3.00
2022-11-22T22:48:43.156Z,3.00
2022-11-22T22:51:31.892Z,3.00
2022-11-22T22:54:00.995Z,3.00
2022-11-22T22:56:29.980Z,3.00
2022-11-22T22:58:59.278Z,3.00
2022-11-22T23:01:28.216Z,3.00
2022-11-22T23:03:58.456Z,3.00
2022-11-22T23:06:28.012Z,2.90
2022-11-22T23:08:56.110Z,2.90
2022-11-22T23:11:46.314Z,3.00
2022-11-22T23:14:16.871Z,2.90
2022-11-22T23:16:44.184Z,2.90
2022-11-22T23:19:11.522Z,2.90
2022-11-22T23:21:39.019Z,2.90
2022-11-22T23:24:06.972Z,2.90
2022-11-22T23:26:34.385Z,2.90
2022-11-22T23:29:01.478Z,2.90
2022-11-22T23:31:28.739Z,2.90
2022-11-22T23:33:56.031Z,2.90
2022-11-22T23:36:23.859Z,2.90
2022-11-22T23:38:50.908Z,2.90
2022-11-22T23:41:20.669Z,2.90
2022-11-22T23:43:52.186Z,2.90
2022-11-22T23:46:19.803Z,3.00
2022-11-22T23:48:52.354Z,3.00
2022-11-22T23:51:20.053Z,3.00
2022-11-22T23:53:47.194Z,2.90
2022-11-22T23:56:21.563Z,2.90
2022-11-22T23:58:49.736Z,3.00
